createdAt,value
2017-01-04T18:33:41.413Z,1003.09
2017-01-04T18:35:00.663Z,1003.16
2017-01-04T18:36:18.568Z,1003.26
2017-01-04T18:37:32.708Z,1003.17
2017-01-04T18:38:56.911Z,1003.25
2017-01-04T18:40:16.152Z,1003.35
2017-01-04T18:41:37.311Z,1003.27
2017-01-04T18:42:55.339Z,1003.26
2017-01-04T18:44:10.554Z,1003.31
2017-01-04T18:45:27.422Z,1003.28
2017-01-04T18:46:41.645Z,1003.19
2017-01-04T18:47:56.858Z,1003.2
2017-01-04T18:49:11.106Z,1003.27
2017-01-04T18:50:26.376Z,1003.26
2017-01-04T18:54:10.299Z,1003.14
2017-01-04T18:55:24.929Z,1003.14
2017-01-04T18:56:39.904Z,1003.26
2017-01-04T18:57:55.080Z,1003.34
2017-01-04T18:59:09.435Z,1003.28
2017-01-04T19:00:25.450Z,1003.29
2017-01-04T19:01:39.709Z,1003.34
2017-01-04T19:02:54.991Z,1003.33
2017-01-04T19:04:09.354Z,1003.37
2017-01-04T19:05:24.171Z,1003.35
2017-01-04T19:06:40.624Z,1003.38
2017-01-04T19:07:55.608Z,1003.36
2017-01-04T19:09:10.508Z,1003.36
2017-01-04T19:10:26.573Z,1003.35
2017-01-04T19:11:41.471Z,1003.4
2017-01-04T19:12:56.738Z,1003.48
2017-01-04T19:14:15.005Z,1003.57
2017-01-04T19:15:30.744Z,1003.64
2017-01-04T19:16:45.054Z,1003.71
2017-01-04T19:18:00.323Z,1003.74
2017-01-04T19:19:18.159Z,1003.79
2017-01-04T19:20:33.358Z,1003.82
2017-01-04T19:21:56.050Z,1003.81
2017-01-04T19:23:11.763Z,1003.83
2017-01-04T19:24:27.614Z,1003.86
2017-01-04T19:25:42.973Z,1003.86
2017-01-04T19:26:58.322Z,1003.86
2017-01-04T19:28:13.061Z,1003.91
2017-01-04T19:29:28.924Z,1003.94
2017-01-04T19:30:43.245Z,1003.91
2017-01-04T19:31:57.771Z,1003.86
2017-01-04T19:33:13.125Z,1003.87
2017-01-04T19:34:27.725Z,1003.94
2017-01-04T19:35:44.171Z,1003.94
2017-01-04T19:36:58.878Z,1003.93
2017-01-04T19:38:13.674Z,1003.9
2017-01-04T19:39:28.479Z,1003.88
2017-01-04T19:41:00.866Z,1003.89
2017-01-04T19:42:15.270Z,1003.92
2017-01-04T19:43:30.722Z,1003.96
2017-01-04T19:44:45.472Z,1003.91
2017-01-04T19:46:00.734Z,1003.9
2017-01-04T19:47:15.809Z,1003.9
2017-01-04T19:48:56.673Z,1003.91
2017-01-04T19:50:12.869Z,1003.95
2017-01-04T19:51:28.430Z,1004.01
2017-01-04T19:52:44.064Z,1004.02
2017-01-04T19:53:58.533Z,1004.04
2017-01-04T19:55:14.758Z,1004.07
2017-01-04T19:56:29.722Z,1004.1
2017-01-04T19:57:45.542Z,1004.12
2017-01-04T19:59:01.572Z,1004.15
2017-01-04T20:00:15.925Z,1004.1
2017-01-04T20:01:30.627Z,1004.15
2017-01-04T20:02:45.580Z,1004.19
2017-01-04T20:04:01.169Z,1004.33
2017-01-04T20:05:18.849Z,1004.36
2017-01-04T20:06:32.980Z,1004.3
2017-01-04T20:07:48.288Z,1004.29
2017-01-04T20:09:04.709Z,1004.36
2017-01-04T20:10:19.635Z,1004.41
2017-01-04T20:11:34.935Z,1004.44
2017-01-04T20:12:49.168Z,1004.47
2017-01-04T20:14:04.681Z,1004.45
2017-01-04T20:15:19.064Z,1004.48
2017-01-04T20:16:34.397Z,1004.53
2017-01-04T20:17:48.553Z,1004.52
2017-01-04T20:19:03.863Z,1004.45
2017-01-04T20:20:18.824Z,1004.5
2017-01-04T20:21:33.733Z,1004.49
2017-01-04T20:22:49.560Z,1004.46
2017-01-04T20:24:03.970Z,1004.45
2017-01-04T20:25:18.873Z,1004.47
2017-01-04T20:26:35.308Z,1004.48
2017-01-04T20:27:49.500Z,1004.5
2017-01-04T20:29:04.246Z,1004.5
2017-01-04T20:30:19.342Z,1004.64
2017-01-04T20:31:33.733Z,1004.61
2017-01-04T20:32:50.773Z,1004.68
2017-01-04T20:34:06.723Z,1004.67
2017-01-04T20:35:21.393Z,1004.67
2017-01-04T20:36:38.113Z,1004.69
2017-01-04T20:37:53.562Z,1004.7
2017-01-04T20:39:08.551Z,1004.73
2017-01-04T20:40:23.392Z,1004.73
2017-01-04T20:41:37.663Z,1004.75
2017-01-04T20:42:51.917Z,1004.76
2017-01-04T20:44:06.619Z,1004.8
2017-01-04T20:45:21.238Z,1004.87
2017-01-04T20:46:51.351Z,1004.89
2017-01-04T20:48:06.127Z,1004.93
2017-01-04T20:49:21.401Z,1004.93
2017-01-04T20:50:36.034Z,1004.98
2017-01-04T20:51:50.788Z,1004.96
2017-01-04T20:53:05.421Z,1005.02
2017-01-04T20:54:21.074Z,1005.04
2017-01-04T20:55:35.172Z,1004.99
2017-01-04T20:56:50.949Z,1005.08
2017-01-04T20:58:05.140Z,1005.12
2017-01-04T20:59:19.681Z,1005.14
2017-01-04T21:00:34.161Z,1005.15
2017-01-04T21:01:50.308Z,1005.24
2017-01-04T21:03:04.551Z,1005.22
2017-01-04T21:04:19.338Z,1005.25
2017-01-04T21:05:34.133Z,1005.31
2017-01-04T21:06:49.356Z,1005.3
2017-01-04T21:08:03.525Z,1005.29
2017-01-04T21:09:18.501Z,1005.26
2017-01-04T21:10:33.430Z,1005.28
2017-01-04T21:11:49.634Z,1005.33
2017-01-04T21:13:04.572Z,1005.29
2017-01-04T21:14:18.844Z,1005.34
2017-01-04T21:15:34.811Z,1005.37
2017-01-04T21:16:49.443Z,1005.38
2017-01-04T21:18:03.807Z,1005.42
2017-01-04T21:19:18.401Z,1005.46
2017-01-04T21:20:33.167Z,1005.54
2017-01-04T21:21:48.736Z,1005.61
2017-01-04T21:23:04.758Z,1005.67
2017-01-04T21:24:20.038Z,1005.75
2017-01-04T21:25:35.665Z,1005.78
2017-01-04T21:26:53.391Z,1005.79
2017-01-04T21:28:08.218Z,1005.79
2017-01-04T21:29:24.280Z,1005.78
2017-01-04T21:30:38.444Z,1005.87
2017-01-04T21:31:56.724Z,1005.79
2017-01-04T21:33:11.347Z,1005.82
2017-01-04T21:34:25.703Z,1005.77
2017-01-04T21:35:40.972Z,1005.71
2017-01-04T21:36:55.792Z,1005.5
2017-01-04T21:38:10.241Z,1005.53
2017-01-04T21:39:24.537Z,1005.43
2017-01-04T21:40:38.733Z,1005.6
2017-01-04T21:41:53.145Z,1005.61
2017-01-04T21:43:07.761Z,1005.6
2017-01-04T21:44:22.923Z,1005.76
2017-01-04T21:45:37.835Z,1005.57
2017-01-04T21:46:53.376Z,1005.61
2017-01-04T21:48:07.661Z,1005.62
2017-01-04T21:49:22.599Z,1005.6
2017-01-04T21:50:39.509Z,1005.57
2017-01-04T21:51:54.670Z,1005.52
2017-01-04T21:53:09.471Z,1005.54
2017-01-04T21:54:24.387Z,1005.63
2017-01-04T21:55:38.690Z,1005.66
2017-01-04T21:56:54.963Z,1005.68
2017-01-04T21:58:09.090Z,1005.73
2017-01-04T21:59:23.442Z,1005.7
2017-01-04T22:00:38.191Z,1005.72
2017-01-04T22:01:52.957Z,1005.74
2017-01-04T22:03:08.192Z,1005.72
2017-01-04T22:04:22.476Z,1005.75
2017-01-04T22:05:37.119Z,1005.79
2017-01-04T22:06:53.767Z,1005.78
2017-01-04T22:08:08.332Z,1005.85
2017-01-04T22:09:22.950Z,1005.82
2017-01-04T22:10:37.076Z,1005.86
2017-01-04T22:11:51.527Z,1005.86
2017-01-04T22:13:06.086Z,1005.87
2017-01-04T22:14:20.511Z,1005.83
2017-01-04T22:15:36.280Z,1005.83
2017-01-04T22:16:50.968Z,1005.86
2017-01-04T22:18:05.343Z,1005.88
2017-01-04T22:19:21.417Z,1005.9
2017-01-04T22:20:36.986Z,1005.92
2017-01-04T22:21:53.795Z,1005.97
2017-01-04T22:23:07.940Z,1006.03
2017-01-04T22:24:22.357Z,1006.05
2017-01-04T22:25:37.058Z,1006.1
2017-01-04T22:26:51.909Z,1006.15
2017-01-04T22:28:07.026Z,1006.16
2017-01-04T22:29:22.005Z,1006.19
2017-01-04T22:30:36.199Z,1006.17
2017-01-04T22:31:50.818Z,1006.19
2017-01-04T22:33:06.110Z,1006.2
2017-01-04T22:34:20.982Z,1006.32
2017-01-04T22:35:35.909Z,1006.33
2017-01-04T22:36:51.527Z,1006.31
2017-01-04T22:38:08.578Z,1006.35
2017-01-04T22:39:23.826Z,1006.34
2017-01-04T22:40:39.115Z,1006.41
2017-01-04T22:41:54.273Z,1006.4
2017-01-04T22:43:09.017Z,1006.42
2017-01-04T22:44:24.055Z,1006.45
2017-01-04T22:45:38.340Z,1006.47
2017-01-04T22:46:53.326Z,1006.5
2017-01-04T22:48:21.751Z,1006.55
2017-01-04T22:49:36.577Z,1006.54
2017-01-04T22:50:50.767Z,1006.56
2017-01-04T22:52:05.973Z,1006.59
2017-01-04T22:53:20.687Z,1006.59
2017-01-04T22:54:35.624Z,1006.58
2017-01-04T22:55:51.736Z,1006.66
2017-01-04T22:57:07.060Z,1006.67
2017-01-04T22:58:21.125Z,1006.68
2017-01-04T22:59:36.361Z,1006.68
2017-01-04T23:00:52.765Z,1006.71
2017-01-04T23:02:07.209Z,1006.79
2017-01-04T23:03:21.965Z,1006.78
2017-01-04T23:04:36.590Z,1006.8
2017-01-04T23:05:50.925Z,1006.74
2017-01-04T23:07:06.452Z,1006.83
2017-01-04T23:08:23.284Z,1006.9
2017-01-04T23:09:37.874Z,1006.89
2017-01-04T23:10:52.152Z,1006.91
2017-01-04T23:12:06.968Z,1006.91
2017-01-04T23:13:21.771Z,1006.96
2017-01-04T23:14:36.342Z,1006.87
2017-01-04T23:15:50.632Z,1007.02
2017-01-04T23:17:05.622Z,1006.99
2017-01-04T23:18:20.182Z,1006.98
2017-01-04T23:19:34.396Z,1007.02
2017-01-04T23:20:49.456Z,1007.01
2017-01-04T23:22:03.718Z,1007.04
2017-01-04T23:23:18.005Z,1007.13
2017-01-04T23:24:32.233Z,1007.09
2017-01-04T23:25:48.004Z,1007.14
2017-01-04T23:27:03.782Z,1007.16
2017-01-04T23:28:18.436Z,1007.28
2017-01-04T23:29:32.704Z,1007.26
2017-01-04T23:30:46.837Z,1007.34
2017-01-04T23:32:02.425Z,1007.4
2017-01-04T23:33:16.872Z,1007.41
2017-01-04T23:34:31.174Z,1007.44
2017-01-04T23:35:45.772Z,1007.38
2017-01-04T23:37:00.375Z,1007.42
2017-01-04T23:38:14.475Z,1007.4
2017-01-04T23:39:29.063Z,1007.38
2017-01-04T23:40:44.156Z,1007.36
2017-01-04T23:41:58.769Z,1007.38
2017-01-04T23:43:13.632Z,1007.4
2017-01-04T23:44:28.535Z,1007.36
2017-01-04T23:45:43.683Z,1007.38
2017-01-04T23:46:57.909Z,1007.41
2017-01-04T23:48:13.209Z,1007.41
2017-01-04T23:49:28.368Z,1007.45
2017-01-04T23:50:44.350Z,1007.37
2017-01-04T23:52:26.327Z,1007.43
2017-01-04T23:53:41.597Z,1007.46
2017-01-04T23:54:56.652Z,1007.41
2017-01-04T23:56:10.923Z,1007.46
2017-01-04T23:59:10.763Z,1007.53
